createdAt,value
2023-05-14T04:00:47.229Z,10.79
2023-05-14T04:01:48.189Z,10.79
2023-05-14T04:02:48.281Z,10.78
2023-05-14T04:03:48.335Z,10.82
2023-05-14T04:04:48.240Z,10.82
2023-05-14T04:05:48.140Z,10.79
2023-05-14T04:06:48.156Z,10.78
2023-05-14T04:07:48.151Z,10.73
2023-05-14T04:08:48.146Z,10.74
2023-05-14T04:09:48.116Z,10.78
2023-05-14T04:10:48.102Z,10.82
2023-05-14T04:11:48.123Z,10.84
2023-05-14T04:12:48.102Z,10.82
2023-05-14T04:13:48.058Z,10.81
2023-05-14T04:14:48.064Z,10.82
2023-05-14T04:15:48.071Z,10.82
2023-05-14T04:16:48.101Z,10.82
2023-05-14T04:17:48.056Z,10.79
2023-05-14T04:18:48.104Z,10.74
2023-05-14T04:19:48.028Z,10.71
2023-05-14T04:20:48.095Z,10.67
2023-05-14T04:21:47.987Z,10.64
2023-05-14T04:22:47.998Z,10.59
2023-05-14T04:23:47.956Z,10.53
2023-05-14T04:24:47.955Z,10.51
2023-05-14T04:25:47.931Z,10.52
2023-05-14T04:26:47.945Z,10.47
2023-05-14T04:27:47.935Z,10.47
2023-05-14T04:28:47.936Z,10.45
2023-05-14T04:29:47.881Z,10.44
2023-05-14T04:30:47.927Z,10.47
2023-05-14T04:31:47.924Z,10.48
2023-05-14T04:32:47.984Z,10.56
2023-05-14T04:33:47.876Z,10.61
2023-05-14T04:34:47.846Z,10.63
2023-05-14T04:35:47.846Z,10.70
2023-05-14T04:36:47.837Z,10.73
2023-05-14T04:37:47.816Z,10.78
2023-05-14T04:38:47.828Z,10.76
2023-05-14T04:39:47.829Z,10.79
2023-05-14T04:40:47.799Z,10.81
2023-05-14T04:41:47.795Z,10.79
2023-05-14T04:42:47.821Z,10.79
2023-05-14T04:43:47.751Z,10.79
2023-05-14T04:44:47.782Z,10.79
2023-05-14T04:45:47.773Z,10.81
2023-05-14T04:46:47.726Z,10.82
2023-05-14T04:47:47.784Z,10.85
2023-05-14T04:48:47.711Z,10.88
2023-05-14T04:49:47.785Z,10.91
2023-05-14T04:50:47.678Z,11.03
2023-05-14T04:51:47.669Z,11.04
2023-05-14T04:52:47.674Z,11.11
2023-05-14T04:53:47.686Z,11.14
2023-05-14T04:54:47.716Z,11.14
2023-05-14T04:55:47.620Z,11.15
2023-05-14T04:56:47.652Z,11.19
2023-05-14T04:57:47.599Z,11.25
2023-05-14T04:58:47.609Z,11.29
2023-05-14T04:59:47.583Z,11.35
2023-05-14T05:00:47.621Z,11.37
2023-05-14T05:01:47.698Z,11.40
2023-05-14T05:02:47.583Z,11.42
2023-05-14T05:03:47.642Z,11.46
2023-05-14T05:04:47.569Z,11.52
2023-05-14T05:05:47.524Z,11.51
2023-05-14T05:06:47.513Z,11.52
2023-05-14T05:07:47.488Z,11.54
2023-05-14T05:08:47.502Z,11.51
2023-05-14T05:09:47.482Z,11.52
2023-05-14T05:10:47.500Z,11.52
2023-05-14T05:11:47.461Z,11.54
2023-05-14T05:12:47.447Z,11.57
2023-05-14T05:13:47.479Z,11.58
2023-05-14T05:14:47.451Z,11.60
2023-05-14T05:15:47.422Z,11.62
2023-05-14T05:16:47.419Z,11.64
2023-05-14T05:17:47.439Z,11.64
2023-05-14T05:18:47.406Z,11.64
2023-05-14T05:19:47.367Z,11.65
2023-05-14T05:20:47.362Z,11.67
2023-05-14T05:21:47.369Z,11.73
2023-05-14T05:22:47.417Z,11.82
2023-05-14T05:23:47.346Z,11.90
2023-05-14T05:24:49.242Z,11.91
2023-05-14T05:25:47.338Z,12.01
2023-05-14T05:26:47.348Z,12.12
2023-05-14T05:27:47.327Z,12.19
2023-05-14T05:28:47.275Z,12.28
2023-05-14T05:29:47.322Z,12.38
2023-05-14T05:30:47.274Z,12.41
2023-05-14T05:31:47.343Z,12.52
2023-05-14T05:32:47.297Z,12.62
2023-05-14T05:33:47.238Z,12.70
2023-05-14T05:34:47.246Z,12.78
2023-05-14T05:35:47.269Z,12.89
2023-05-14T05:36:47.240Z,13.01
2023-05-14T05:37:47.190Z,13.11
2023-05-14T05:38:47.178Z,13.25
2023-05-14T05:39:47.170Z,13.36
2023-05-14T05:40:47.217Z,13.48
2023-05-14T05:41:47.160Z,13.55
2023-05-14T05:42:47.173Z,13.62
2023-05-14T05:43:47.141Z,13.69
2023-05-14T05:44:47.115Z,13.75
2023-05-14T05:45:47.188Z,13.79
2023-05-14T05:46:47.182Z,13.85
2023-05-14T05:47:47.142Z,13.95
2023-05-14T05:48:47.061Z,14.03
2023-05-14T05:49:47.124Z,14.07
2023-05-14T05:50:47.080Z,14.10
2023-05-14T05:51:47.040Z,14.20
2023-05-14T05:52:47.055Z,14.25
2023-05-14T05:53:47.012Z,14.32
2023-05-14T05:54:47.059Z,14.37
2023-05-14T05:55:47.019Z,14.43
2023-05-14T05:56:47.021Z,14.50
2023-05-14T05:57:46.991Z,14.57
2023-05-14T05:58:46.980Z,14.62
2023-05-14T05:59:47.027Z,14.65
2023-05-14T06:00:47.013Z,14.62
2023-05-14T06:01:46.994Z,14.61
2023-05-14T06:02:47.070Z,14.62
2023-05-14T06:03:48.496Z,14.68
2023-05-14T06:04:47.026Z,14.69
2023-05-14T06:05:47.042Z,14.70
2023-05-14T06:06:46.876Z,14.69
2023-05-14T06:07:46.893Z,14.61
2023-05-14T06:08:46.927Z,14.55
2023-05-14T06:09:46.873Z,14.51
2023-05-14T06:10:47.615Z,14.39
2023-05-14T06:11:46.858Z,14.37
2023-05-14T06:12:46.819Z,14.32
2023-05-14T06:13:46.839Z,14.29
2023-05-14T06:14:46.830Z,14.24
2023-05-14T06:15:46.818Z,14.24
2023-05-14T06:16:46.852Z,14.17
2023-05-14T06:17:46.793Z,14.17
2023-05-14T06:18:46.856Z,14.14
2023-05-14T06:19:46.738Z,14.14
2023-05-14T06:20:46.779Z,14.10
2023-05-14T06:21:46.740Z,14.07
2023-05-14T06:22:46.775Z,14.07
2023-05-14T06:23:46.699Z,14.06
2023-05-14T06:24:46.700Z,14.04
2023-05-14T06:25:47.895Z,13.99
2023-05-14T06:26:46.690Z,14.02
2023-05-14T06:27:46.686Z,14.02
2023-05-14T06:28:46.650Z,14.00
2023-05-14T06:29:46.645Z,13.97
2023-05-14T06:30:46.644Z,13.99
2023-05-14T06:31:46.654Z,14.04
2023-05-14T06:32:46.667Z,14.06
2023-05-14T06:33:46.616Z,14.09
2023-05-14T06:34:46.610Z,14.14
2023-05-14T06:35:46.591Z,14.18
2023-05-14T06:36:46.604Z,14.20
2023-05-14T06:37:46.570Z,14.27
2023-05-14T06:38:46.573Z,14.32
2023-05-14T06:39:46.594Z,14.37
2023-05-14T06:40:46.527Z,14.45
2023-05-14T06:41:46.528Z,14.46
2023-05-14T06:42:46.501Z,14.55
2023-05-14T06:43:46.489Z,14.58
2023-05-14T06:44:46.478Z,14.57
2023-05-14T06:45:46.481Z,14.54
2023-05-14T06:46:46.492Z,14.52
2023-05-14T06:47:46.522Z,14.57
2023-05-14T06:48:46.492Z,14.55
2023-05-14T06:49:46.433Z,14.54
2023-05-14T06:50:46.436Z,14.57
2023-05-14T06:51:46.447Z,14.60
2023-05-14T06:52:46.392Z,14.57
2023-05-14T06:53:46.390Z,14.60
2023-05-14T06:54:46.374Z,14.65
2023-05-14T06:55:46.417Z,14.72
2023-05-14T06:56:46.356Z,14.78
2023-05-14T06:57:46.374Z,14.75
2023-05-14T06:58:46.824Z,14.80
2023-05-14T06:59:47.016Z,14.89
2023-05-14T07:00:46.375Z,14.92
2023-05-14T07:01:46.373Z,14.95
2023-05-14T07:02:46.328Z,14.92
2023-05-14T07:03:46.381Z,14.99
2023-05-14T07:04:46.450Z,15.07
2023-05-14T07:05:46.286Z,15.10
2023-05-14T07:06:46.266Z,15.17
2023-05-14T07:07:46.274Z,15.25
2023-05-14T07:08:46.246Z,15.25
2023-05-14T07:09:46.225Z,15.29
2023-05-14T07:10:46.242Z,15.46
2023-05-14T07:11:46.215Z,15.54
2023-05-14T07:12:46.183Z,15.64
2023-05-14T07:13:46.211Z,15.67
2023-05-14T07:14:46.391Z,15.65
2023-05-14T07:15:46.454Z,15.64
2023-05-14T07:16:46.200Z,15.67
2023-05-14T07:17:46.201Z,15.76
2023-05-14T07:18:46.145Z,15.82
2023-05-14T07:19:46.149Z,15.94
2023-05-14T07:20:46.109Z,16.07
2023-05-14T07:21:46.103Z,16.17
2023-05-14T07:22:46.075Z,16.23
2023-05-14T07:23:46.090Z,16.24
2023-05-14T07:24:46.082Z,16.34
2023-05-14T07:25:46.041Z,16.42
2023-05-14T07:26:46.138Z,16.45
2023-05-14T07:27:46.079Z,16.49
2023-05-14T07:28:46.076Z,16.52
2023-05-14T07:29:46.065Z,16.60
2023-05-14T07:30:45.984Z,16.49
2023-05-14T07:31:46.029Z,16.39
2023-05-14T07:32:46.046Z,16.43
2023-05-14T07:33:46.007Z,16.42
2023-05-14T07:34:45.946Z,16.45
2023-05-14T07:35:45.966Z,16.53
2023-05-14T07:36:45.932Z,16.60
2023-05-14T07:37:45.941Z,16.73
2023-05-14T07:38:45.911Z,16.86
2023-05-14T07:39:45.898Z,16.98
2023-05-14T07:40:45.939Z,17.12
2023-05-14T07:41:45.916Z,17.15
2023-05-14T07:42:45.891Z,17.16
2023-05-14T07:43:45.903Z,17.14
2023-05-14T07:44:45.832Z,17.23
2023-05-14T07:45:45.856Z,17.26
2023-05-14T07:46:45.823Z,17.36
2023-05-14T07:47:45.941Z,17.40
2023-05-14T07:48:45.907Z,17.43
2023-05-14T07:49:45.817Z,17.51
2023-05-14T07:50:45.784Z,17.58
2023-05-14T07:51:45.785Z,17.71
2023-05-14T07:52:45.771Z,17.72
2023-05-14T07:53:45.754Z,17.75
2023-05-14T07:54:45.740Z,17.81
2023-05-14T07:55:45.740Z,17.86
2023-05-14T07:56:45.735Z,18.00
2023-05-14T07:57:45.752Z,18.11
2023-05-14T07:58:45.705Z,18.11
2023-05-14T07:59:45.722Z,18.14
2023-05-14T08:00:45.672Z,18.25
2023-05-14T08:01:45.725Z,18.33
2023-05-14T08:02:45.808Z,18.36
2023-05-14T08:03:45.715Z,18.39
2023-05-14T08:04:45.654Z,18.29
2023-05-14T08:05:45.625Z,18.18
2023-05-14T08:06:45.646Z,18.23
2023-05-14T08:07:45.657Z,18.14
2023-05-14T08:08:45.588Z,18.20
2023-05-14T08:09:45.585Z,18.20
2023-05-14T08:10:45.642Z,18.23
2023-05-14T08:11:45.567Z,18.18
2023-05-14T08:12:45.565Z,18.27
2023-05-14T08:13:45.550Z,18.30
2023-05-14T08:14:45.554Z,18.42
2023-05-14T08:15:45.532Z,18.44
2023-05-14T08:16:45.534Z,18.58
2023-05-14T08:17:45.631Z,18.65
2023-05-14T08:18:45.560Z,18.60
2023-05-14T08:19:45.502Z,18.70
2023-05-14T08:20:45.492Z,18.84
2023-05-14T08:21:45.446Z,18.98
2023-05-14T08:22:45.430Z,18.85
2023-05-14T08:23:45.435Z,18.67
2023-05-14T08:24:45.439Z,18.72
2023-05-14T08:25:45.455Z,18.80
2023-05-14T08:26:47.200Z,18.98
2023-05-14T08:27:45.394Z,19.02
2023-05-14T08:28:45.372Z,18.92
2023-05-14T08:29:45.392Z,18.91
2023-05-14T08:30:45.434Z,18.95
2023-05-14T08:31:45.355Z,19.10
2023-05-14T08:32:45.393Z,19.28
2023-05-14T08:33:45.326Z,19.40
2023-05-14T08:34:45.370Z,19.56
2023-05-14T08:35:45.317Z,19.61
2023-05-14T08:36:45.289Z,19.58
2023-05-14T08:37:45.309Z,19.56
2023-05-14T08:38:45.301Z,19.58
2023-05-14T08:39:45.291Z,19.47
2023-05-14T08:40:45.246Z,19.48
2023-05-14T08:41:45.240Z,19.59
2023-05-14T08:42:45.335Z,19.66
2023-05-14T08:43:45.262Z,19.78
2023-05-14T08:44:45.239Z,19.86
2023-05-14T08:45:45.219Z,19.78
2023-05-14T08:46:45.212Z,19.95
2023-05-14T08:47:45.216Z,20.14
2023-05-14T08:48:45.213Z,20.23
2023-05-14T08:49:45.174Z,20.32
2023-05-14T08:50:45.179Z,20.35
2023-05-14T08:51:45.138Z,20.38
2023-05-14T08:52:45.151Z,20.50
2023-05-14T08:53:45.142Z,20.58
2023-05-14T08:54:45.122Z,20.58
2023-05-14T08:55:45.094Z,20.62
2023-05-14T08:56:45.090Z,20.42
2023-05-14T08:57:45.088Z,20.03
2023-05-14T08:58:45.051Z,20.06
2023-05-14T08:59:45.111Z,20.16
2023-05-14T09:00:45.024Z,19.92
2023-05-14T09:01:45.120Z,19.87
2023-05-14T09:02:45.089Z,20.06
2023-05-14T09:03:45.043Z,20.28
2023-05-14T09:04:44.998Z,20.48
2023-05-14T09:05:44.985Z,20.67
2023-05-14T09:06:45.028Z,20.85
2023-05-14T09:07:45.023Z,20.94
2023-05-14T09:08:44.993Z,21.17
2023-05-14T09:09:44.974Z,21.24
2023-05-14T09:10:44.988Z,21.56
2023-05-14T09:11:44.981Z,22.02
2023-05-14T09:12:44.963Z,22.51
2023-05-14T09:13:44.918Z,23.12
2023-05-14T09:14:44.893Z,23.76
2023-05-14T09:15:44.895Z,24.10
2023-05-14T09:16:45.003Z,24.40
2023-05-14T09:17:44.922Z,24.12
2023-05-14T09:18:44.909Z,24.53
2023-05-14T09:19:44.836Z,25.00
2023-05-14T09:20:44.827Z,25.33
2023-05-14T09:21:44.859Z,25.13
2023-05-14T09:22:44.813Z,24.99
2023-05-14T09:23:44.808Z,24.30
2023-05-14T09:24:44.836Z,23.83
2023-05-14T09:25:44.799Z,24.61
2023-05-14T09:26:44.809Z,25.10
2023-05-14T09:27:44.758Z,25.18
2023-05-14T09:28:44.761Z,25.50
2023-05-14T09:29:44.790Z,25.69
2023-05-14T09:30:44.751Z,26.33
2023-05-14T09:31:44.770Z,26.97
2023-05-14T09:32:44.768Z,27.09
2023-05-14T09:33:44.693Z,27.39
2023-05-14T09:34:44.686Z,27.51
2023-05-14T09:35:44.688Z,25.54
2023-05-14T09:36:44.676Z,23.42
2023-05-14T09:37:44.648Z,22.28
2023-05-14T09:38:44.720Z,21.24
2023-05-14T09:39:44.656Z,22.21
2023-05-14T09:40:44.991Z,23.10
2023-05-14T09:41:45.075Z,23.60
2023-05-14T09:42:44.788Z,22.73
2023-05-14T09:43:44.904Z,22.62
2023-05-14T09:44:44.797Z,23.83
2023-05-14T09:45:44.934Z,24.77
2023-05-14T09:46:45.721Z,25.02
2023-05-14T09:47:45.021Z,25.69
2023-05-14T09:48:44.600Z,25.05
2023-05-14T09:49:44.550Z,24.60
2023-05-14T09:50:44.510Z,25.35
2023-05-14T09:51:44.510Z,24.16
2023-05-14T09:52:44.528Z,22.90
2023-05-14T09:53:44.490Z,22.40
2023-05-14T09:54:44.509Z,22.06
2023-05-14T09:55:44.468Z,21.68
2023-05-14T09:56:44.460Z,21.46
2023-05-14T09:57:44.467Z,21.04
2023-05-14T09:58:44.437Z,21.96
2023-05-14T09:59:44.417Z,23.53
2023-05-14T10:00:44.443Z,25.13
2023-05-14T10:01:44.783Z,25.92
2023-05-14T10:02:44.422Z,26.69
2023-05-14T10:03:44.441Z,26.13
2023-05-14T10:04:44.465Z,25.03
2023-05-14T10:05:44.416Z,25.08
2023-05-14T10:06:44.392Z,24.85
2023-05-14T10:07:44.370Z,24.30
2023-05-14T10:08:44.348Z,23.93
2023-05-14T10:09:44.315Z,25.27
2023-05-14T10:10:44.299Z,24.49
2023-05-14T10:11:44.444Z,23.50
2023-05-14T10:12:44.272Z,23.32
2023-05-14T10:13:44.317Z,24.37
2023-05-14T10:14:44.280Z,24.31
2023-05-14T10:15:44.282Z,23.55
2023-05-14T10:16:44.274Z,24.98
2023-05-14T10:17:44.349Z,26.09
2023-05-14T10:18:44.369Z,26.82
2023-05-14T10:19:44.224Z,26.57
2023-05-14T10:20:44.251Z,25.50
2023-05-14T10:21:44.205Z,25.52
2023-05-14T10:22:44.181Z,26.12
2023-05-14T10:23:44.176Z,25.90
2023-05-14T10:24:44.165Z,26.70
2023-05-14T10:25:44.170Z,26.29
2023-05-14T10:26:44.204Z,25.20
2023-05-14T10:27:44.200Z,25.52
2023-05-14T10:28:44.136Z,26.35
2023-05-14T10:29:44.117Z,24.84
2023-05-14T10:30:44.138Z,23.90
2023-05-14T10:31:44.300Z,23.17
2023-05-14T10:32:44.405Z,24.20
2023-05-14T10:33:44.070Z,25.57
2023-05-14T10:34:44.298Z,26.28
2023-05-14T10:35:44.116Z,27.02
2023-05-14T10:36:44.066Z,27.44
2023-05-14T10:37:44.051Z,28.03
2023-05-14T10:38:44.053Z,27.51
2023-05-14T10:39:44.076Z,26.75
2023-05-14T10:40:44.023Z,25.47
2023-05-14T10:41:44.021Z,24.90
2023-05-14T10:42:44.018Z,25.09
2023-05-14T10:43:43.982Z,24.50
2023-05-14T10:44:43.989Z,24.20
2023-05-14T10:45:44.021Z,24.15
2023-05-14T10:46:43.974Z,24.95
2023-05-14T10:47:43.981Z,25.65
2023-05-14T10:48:43.921Z,26.32
2023-05-14T10:49:44.138Z,26.09
2023-05-14T10:50:43.969Z,26.60
2023-05-14T10:51:44.021Z,27.17
2023-05-14T10:52:43.929Z,27.62
2023-05-14T10:53:43.868Z,27.85
2023-05-14T10:54:43.912Z,27.44
2023-05-14T10:55:43.881Z,25.82
2023-05-14T10:56:43.846Z,25.06
2023-05-14T10:57:43.872Z,24.27
2023-05-14T10:58:43.833Z,23.70
2023-05-14T10:59:43.836Z,23.17
2023-05-14T11:00:43.794Z,22.67
2023-05-14T11:01:43.807Z,22.22
2023-05-14T11:02:43.841Z,22.94
2023-05-14T11:03:43.857Z,23.98
2023-05-14T11:04:43.795Z,25.21
2023-05-14T11:05:43.733Z,25.87
2023-05-14T11:06:43.768Z,25.57
2023-05-14T11:07:43.732Z,25.77
2023-05-14T11:08:43.738Z,26.48
2023-05-14T11:09:43.755Z,27.00
2023-05-14T11:10:43.683Z,27.66
2023-05-14T11:11:43.659Z,27.82
2023-05-14T11:12:43.689Z,27.88
2023-05-14T11:13:43.636Z,27.99
2023-05-14T11:14:43.637Z,27.55
2023-05-14T11:15:43.609Z,27.94
2023-05-14T11:16:43.693Z,28.70
2023-05-14T11:17:43.674Z,29.18
2023-05-14T11:18:43.635Z,29.00
2023-05-14T11:19:43.584Z,29.19
2023-05-14T11:20:43.598Z,29.52
2023-05-14T11:21:43.629Z,29.53
2023-05-14T11:22:43.561Z,29.67
2023-05-14T11:23:43.594Z,29.31
2023-05-14T11:24:43.530Z,29.06
2023-05-14T11:25:44.495Z,28.06
2023-05-14T11:26:43.651Z,26.73
2023-05-14T11:27:43.494Z,25.15
2023-05-14T11:28:43.499Z,25.33
2023-05-14T11:29:43.507Z,26.67
2023-05-14T11:30:43.462Z,27.29
2023-05-14T11:31:43.461Z,27.09
2023-05-14T11:32:43.508Z,27.94
2023-05-14T11:33:43.497Z,27.32
2023-05-14T11:34:43.419Z,26.70
2023-05-14T11:35:43.401Z,27.47
2023-05-14T11:36:43.548Z,27.85
2023-05-14T11:37:43.416Z,28.04
2023-05-14T11:38:43.401Z,27.77
2023-05-14T11:39:43.382Z,27.43
2023-05-14T11:40:43.357Z,27.29
2023-05-14T11:41:43.353Z,27.74
2023-05-14T11:42:43.380Z,28.44
2023-05-14T11:43:43.330Z,28.83
2023-05-14T11:44:43.318Z,28.55
2023-05-14T11:45:43.332Z,28.73
2023-05-14T11:46:43.361Z,27.40
2023-05-14T11:47:43.325Z,26.47
2023-05-14T11:48:43.290Z,25.52
2023-05-14T11:49:43.278Z,26.75
2023-05-14T11:50:43.258Z,25.87
2023-05-14T11:51:43.244Z,25.21
2023-05-14T11:52:43.236Z,24.13
2023-05-14T11:53:43.239Z,23.22
2023-05-14T11:54:43.242Z,22.70
2023-05-14T11:55:43.193Z,22.55
2023-05-14T11:56:43.204Z,22.51
2023-05-14T11:57:43.181Z,23.95
2023-05-14T11:58:43.187Z,25.00
2023-05-14T11:59:43.172Z,25.79
2023-05-14T12:00:43.153Z,25.72
2023-05-14T12:01:43.148Z,25.80
2023-05-14T12:02:43.188Z,26.47
2023-05-14T12:03:43.223Z,26.89
2023-05-14T12:04:43.150Z,27.37
2023-05-14T12:05:43.088Z,27.50
2023-05-14T12:06:43.085Z,27.25
2023-05-14T12:07:43.066Z,26.36
2023-05-14T12:08:43.110Z,27.17
2023-05-14T12:09:45.169Z,27.39
2023-05-14T12:10:43.073Z,28.12
2023-05-14T12:11:43.021Z,26.91
2023-05-14T12:12:43.019Z,26.50
2023-05-14T12:13:43.005Z,27.62
2023-05-14T12:14:42.998Z,28.25
2023-05-14T12:15:43.049Z,28.74
2023-05-14T12:16:43.153Z,29.31
2023-05-14T12:17:43.023Z,29.23
2023-05-14T12:18:43.052Z,29.08
2023-05-14T12:19:42.953Z,28.37
2023-05-14T12:20:42.970Z,28.88
2023-05-14T12:21:42.935Z,28.36
2023-05-14T12:22:42.928Z,28.07
2023-05-14T12:23:42.902Z,27.72
2023-05-14T12:24:42.894Z,26.91
2023-05-14T12:25:42.874Z,26.07
2023-05-14T12:26:42.944Z,25.62
2023-05-14T12:27:42.869Z,25.32
2023-05-14T12:28:43.813Z,25.60
2023-05-14T12:29:42.853Z,26.17
2023-05-14T12:30:42.844Z,26.51
2023-05-14T12:31:42.875Z,27.21
2023-05-14T12:32:42.877Z,27.62
2023-05-14T12:33:42.797Z,27.40
2023-05-14T12:34:42.817Z,26.99
2023-05-14T12:35:42.787Z,27.02
2023-05-14T12:36:42.771Z,26.36
2023-05-14T12:37:42.760Z,26.06
2023-05-14T12:38:42.803Z,26.29
2023-05-14T12:39:42.748Z,26.17
2023-05-14T12:40:42.728Z,26.33
2023-05-14T12:41:42.719Z,25.92
2023-05-14T12:42:42.707Z,26.37
2023-05-14T12:43:42.821Z,26.50
2023-05-14T12:44:42.771Z,26.01
2023-05-14T12:45:42.674Z,25.67
2023-05-14T12:46:42.709Z,25.57
2023-05-14T12:47:42.713Z,25.51
2023-05-14T12:48:42.665Z,25.10
2023-05-14T12:49:42.651Z,24.85
2023-05-14T12:50:43.838Z,24.69
2023-05-14T12:51:42.608Z,24.53
2023-05-14T12:52:42.639Z,24.25
2023-05-14T12:53:42.602Z,24.12
2023-05-14T12:54:42.988Z,23.88
2023-05-14T12:55:42.568Z,23.58
2023-05-14T12:56:42.566Z,23.50
2023-05-14T12:57:42.558Z,23.38
2023-05-14T12:58:42.542Z,23.38
2023-05-14T12:59:42.542Z,23.54
2023-05-14T13:00:42.534Z,23.61
2023-05-14T13:01:42.523Z,23.91
2023-05-14T13:02:43.655Z,24.09
2023-05-14T13:03:42.537Z,24.22
2023-05-14T13:04:42.545Z,24.35
2023-05-14T13:05:44.807Z,24.21
2023-05-14T13:06:44.720Z,24.45
2023-05-14T13:07:50.865Z,24.45
2023-05-14T13:08:46.014Z,23.90
2023-05-14T13:09:59.854Z,23.98
2023-05-14T13:10:42.407Z,23.95
2023-05-14T13:11:42.433Z,24.10
2023-05-14T13:12:42.404Z,23.97
2023-05-14T13:13:42.409Z,23.79
2023-05-14T13:14:42.382Z,23.63
2023-05-14T13:15:42.356Z,23.36
2023-05-14T13:16:42.388Z,23.05
2023-05-14T13:17:42.439Z,22.73
2023-05-14T13:18:42.370Z,22.58
2023-05-14T13:19:42.318Z,22.28
2023-05-14T13:20:43.311Z,21.98
2023-05-14T13:21:42.318Z,21.69
2023-05-14T13:22:42.299Z,21.64
2023-05-14T13:23:42.298Z,21.61
2023-05-14T13:24:42.280Z,21.49
2023-05-14T13:25:42.314Z,21.35
2023-05-14T13:26:42.263Z,21.34
2023-05-14T13:27:42.235Z,21.28
2023-05-14T13:28:42.224Z,21.22
2023-05-14T13:29:42.223Z,21.22
2023-05-14T13:30:42.259Z,21.27
2023-05-14T13:31:42.191Z,21.17
2023-05-14T13:32:42.379Z,21.10
2023-05-14T13:33:42.187Z,21.07
2023-05-14T13:34:42.194Z,20.88
2023-05-14T13:35:42.156Z,20.87
2023-05-14T13:36:42.152Z,20.87
2023-05-14T13:37:42.152Z,20.84
2023-05-14T13:38:42.132Z,20.64
2023-05-14T13:39:42.142Z,20.66
2023-05-14T13:40:42.104Z,20.50
2023-05-14T13:41:42.097Z,20.42
2023-05-14T13:42:42.103Z,20.24
2023-05-14T13:43:42.066Z,20.26
2023-05-14T13:44:42.090Z,20.21
2023-05-14T13:45:42.045Z,20.26
2023-05-14T13:46:42.091Z,20.47
2023-05-14T13:47:42.033Z,20.67
2023-05-14T13:48:42.043Z,20.67
2023-05-14T13:49:42.019Z,20.69
2023-05-14T13:50:42.037Z,20.70
2023-05-14T13:51:41.982Z,20.87
2023-05-14T13:52:41.967Z,20.87
2023-05-14T13:53:42.031Z,20.67
2023-05-14T13:54:41.957Z,20.52
2023-05-14T13:55:42.009Z,20.51
2023-05-14T13:56:41.932Z,20.55
2023-05-14T13:57:41.925Z,20.48
2023-05-14T13:58:41.938Z,20.35
2023-05-14T13:59:41.909Z,20.43
2023-05-14T14:00:41.934Z,20.50
2023-05-14T14:01:41.895Z,20.48
2023-05-14T14:02:41.913Z,20.61
2023-05-14T14:03:41.855Z,20.62
2023-05-14T14:04:41.900Z,20.64
2023-05-14T14:05:41.960Z,20.64
2023-05-14T14:06:41.834Z,20.67
2023-05-14T14:07:41.856Z,20.52
2023-05-14T14:08:41.831Z,20.43
2023-05-14T14:09:41.796Z,20.42
2023-05-14T14:10:41.811Z,20.58
2023-05-14T14:11:41.786Z,20.77
2023-05-14T14:12:41.784Z,20.89
2023-05-14T14:13:42.605Z,20.97
2023-05-14T14:14:41.743Z,20.94
2023-05-14T14:15:41.740Z,20.87
2023-05-14T14:16:41.854Z,20.82
2023-05-14T14:17:41.801Z,20.88
2023-05-14T14:18:41.718Z,20.98
2023-05-14T14:19:41.690Z,21.01
2023-05-14T14:20:41.686Z,20.94
2023-05-14T14:21:41.712Z,20.97
2023-05-14T14:22:41.658Z,21.06
2023-05-14T14:23:41.652Z,21.14
2023-05-14T14:24:41.648Z,21.24
2023-05-14T14:25:41.647Z,21.25
2023-05-14T14:26:41.687Z,21.22
2023-05-14T14:27:41.602Z,21.31
2023-05-14T14:28:41.617Z,21.34
2023-05-14T14:29:41.583Z,21.31
2023-05-14T14:30:41.590Z,21.32
2023-05-14T14:31:41.617Z,21.46
2023-05-14T14:32:41.558Z,21.44
2023-05-14T14:33:41.539Z,21.44
2023-05-14T14:34:41.535Z,21.53
2023-05-14T14:35:41.590Z,21.53
2023-05-14T14:36:41.504Z,21.72
2023-05-14T14:37:41.494Z,21.72
2023-05-14T14:38:41.540Z,21.42
2023-05-14T14:39:41.524Z,21.49
2023-05-14T14:40:41.589Z,21.54
2023-05-14T14:41:41.465Z,21.69
2023-05-14T14:42:41.455Z,21.64
2023-05-14T14:43:41.434Z,21.49
2023-05-14T14:44:41.435Z,21.44
2023-05-14T14:45:41.465Z,21.61
2023-05-14T14:47:03.021Z,21.83
2023-05-14T14:47:41.484Z,21.86
2023-05-14T14:48:41.387Z,21.79
2023-05-14T14:49:41.404Z,21.67
2023-05-14T14:50:41.365Z,21.56
2023-05-14T14:51:41.365Z,21.56
2023-05-14T14:52:41.630Z,21.46
2023-05-14T14:53:41.320Z,21.47
2023-05-14T14:54:41.351Z,21.58
2023-05-14T14:55:41.349Z,21.67
2023-05-14T14:56:41.299Z,21.65
2023-05-14T14:57:41.284Z,21.64
2023-05-14T14:58:41.293Z,21.49
2023-05-14T14:59:41.300Z,21.50
2023-05-14T15:00:41.301Z,21.47
2023-05-14T15:01:41.286Z,21.52
2023-05-14T15:02:41.280Z,21.44
2023-05-14T15:03:41.381Z,21.40
2023-05-14T15:04:41.233Z,21.42
2023-05-14T15:05:41.210Z,21.47
2023-05-14T15:06:41.262Z,21.44
2023-05-14T15:07:41.186Z,21.47
2023-05-14T15:08:41.210Z,21.29
2023-05-14T15:09:41.181Z,21.28
2023-05-14T15:10:41.164Z,21.37
2023-05-14T15:11:41.146Z,21.43
2023-05-14T15:12:41.132Z,21.34
2023-05-14T15:13:41.162Z,21.24
2023-05-14T15:14:41.125Z,21.24
2023-05-14T15:15:41.140Z,21.14
2023-05-14T15:16:41.113Z,21.27
2023-05-14T15:17:41.157Z,21.34
2023-05-14T15:18:41.120Z,21.25
2023-05-14T15:19:41.079Z,21.19
2023-05-14T15:20:41.069Z,21.22
2023-05-14T15:21:41.054Z,21.34
2023-05-14T15:22:41.062Z,21.22
2023-05-14T15:23:41.115Z,21.12
2023-05-14T15:24:41.045Z,20.95
2023-05-14T15:25:41.004Z,20.98
2023-05-14T15:26:41.010Z,21.01
2023-05-14T15:27:40.995Z,21.09
2023-05-14T15:28:41.062Z,21.09
2023-05-14T15:29:40.966Z,21.12
2023-05-14T15:30:40.968Z,21.13
2023-05-14T15:31:40.985Z,21.13
2023-05-14T15:32:40.970Z,21.17
2023-05-14T15:33:40.914Z,21.03
2023-05-14T15:34:40.912Z,20.77
2023-05-14T15:35:40.902Z,20.85
2023-05-14T15:36:40.930Z,20.97
2023-05-14T15:37:40.928Z,21.07
2023-05-14T15:38:40.858Z,21.13
2023-05-14T15:39:40.889Z,21.16
2023-05-14T15:40:40.857Z,21.03
2023-05-14T15:41:40.897Z,20.91
2023-05-14T15:42:40.848Z,20.89
2023-05-14T15:43:40.824Z,20.97
2023-05-14T15:44:40.833Z,20.92
2023-05-14T15:45:40.839Z,21.03
2023-05-14T15:46:40.855Z,21.14
2023-05-14T15:47:40.924Z,21.17
2023-05-14T15:48:40.758Z,21.17
2023-05-14T15:49:40.817Z,21.27
2023-05-14T15:50:40.805Z,21.40
2023-05-14T15:51:40.795Z,21.44
2023-05-14T15:52:40.710Z,21.42
2023-05-14T15:53:40.700Z,21.40
2023-05-14T15:54:40.695Z,21.49
2023-05-14T15:55:40.678Z,21.42
2023-05-14T15:56:40.683Z,21.38
2023-05-14T15:57:40.673Z,21.35
2023-05-14T15:58:40.647Z,21.42
2023-05-14T15:59:40.634Z,21.28
2023-05-14T16:00:40.632Z,21.21
2023-05-14T16:01:40.674Z,21.35
2023-05-14T16:02:40.702Z,21.46
2023-05-14T16:03:40.713Z,21.43
2023-05-14T16:04:40.614Z,21.34
2023-05-14T16:05:40.603Z,21.32
2023-05-14T16:06:40.565Z,21.16
2023-05-14T16:07:40.551Z,21.10
2023-05-14T16:08:40.539Z,21.09
2023-05-14T16:09:40.600Z,20.98
2023-05-14T16:10:40.524Z,20.79
2023-05-14T16:11:40.508Z,20.67
2023-05-14T16:12:40.504Z,20.70
2023-05-14T16:13:40.483Z,20.73
2023-05-14T16:14:41.853Z,20.70
2023-05-14T16:15:40.465Z,20.64
2023-05-14T16:16:40.485Z,20.55
2023-05-14T16:17:40.460Z,20.50
2023-05-14T16:18:40.493Z,20.69
2023-05-14T16:19:40.487Z,20.77
2023-05-14T16:20:40.415Z,20.85
2023-05-14T16:21:40.409Z,20.84
2023-05-14T16:22:40.402Z,20.92
2023-05-14T16:23:40.441Z,20.62
2023-05-14T16:24:40.389Z,20.39
2023-05-14T16:25:40.362Z,20.32
2023-05-14T16:26:40.331Z,20.36
2023-05-14T16:27:40.341Z,20.38
2023-05-14T16:28:40.390Z,20.39
2023-05-14T16:29:40.312Z,20.35
2023-05-14T16:30:40.300Z,20.24
2023-05-14T16:31:40.317Z,20.17
2023-05-14T16:32:40.284Z,20.10
2023-05-14T16:33:40.321Z,20.03
2023-05-14T16:34:40.261Z,19.96
2023-05-14T16:35:40.252Z,19.88
2023-05-14T16:36:40.244Z,19.83
2023-05-14T16:37:40.282Z,19.76
2023-05-14T16:38:48.326Z,19.62
2023-05-14T16:39:40.202Z,19.43
2023-05-14T16:40:40.196Z,19.28
2023-05-14T16:41:40.192Z,19.13
2023-05-14T16:42:40.184Z,19.16
2023-05-14T16:43:40.180Z,19.21
2023-05-14T16:44:40.144Z,19.16
2023-05-14T16:45:40.188Z,19.16
2023-05-14T16:46:40.129Z,19.18
2023-05-14T16:47:40.222Z,19.16
2023-05-14T16:48:40.101Z,19.13
2023-05-14T16:49:40.097Z,19.11
2023-05-14T16:50:40.080Z,19.06
2023-05-14T16:51:40.082Z,19.08
2023-05-14T16:52:40.072Z,19.10